createdAt,value
2019-01-03T00:02:06.949Z,7.47
2019-01-03T00:05:21.674Z,7.33
2019-01-03T00:08:31.141Z,6.87
2019-01-03T00:11:43.322Z,6.90
2019-01-03T00:15:11.376Z,6.80
2019-01-03T00:18:19.136Z,7.03
2019-01-03T00:21:27.027Z,6.70
2019-01-03T00:24:42.292Z,7.07
2019-01-03T00:27:54.747Z,6.83
2019-01-03T00:31:03.161Z,7.77
2019-01-03T00:34:09.196Z,6.03
2019-01-03T00:37:34.378Z,6.50
2019-01-03T00:40:42.289Z,6.20
2019-01-03T00:43:50.500Z,6.53
2019-01-03T00:47:14.862Z,6.37
2019-01-03T00:50:42.607Z,6.47
2019-01-03T00:53:51.953Z,6.23
2019-01-03T00:57:03.707Z,5.83
2019-01-03T01:00:24.077Z,6.47
2019-01-03T01:03:39.802Z,6.10
2019-01-03T01:06:48.327Z,6.87
2019-01-03T01:10:03.752Z,6.10
2019-01-03T01:13:15.812Z,7.43
2019-01-03T01:16:36.980Z,6.50
2019-01-03T01:20:01.957Z,7.10
2019-01-03T01:23:13.829Z,8.03
2019-01-03T01:26:22.238Z,8.87
2019-01-03T01:29:37.836Z,8.40
2019-01-03T01:32:54.578Z,8.67
2019-01-03T01:36:06.107Z,8.23
2019-01-03T01:39:24.526Z,7.30
2019-01-03T01:42:40.588Z,7.77
2019-01-03T01:45:52.718Z,8.37
2019-01-03T01:49:05.113Z,7.17
2019-01-03T01:52:23.319Z,7.63
2019-01-03T01:55:42.066Z,8.60
2019-01-03T01:58:51.219Z,8.27
2019-01-03T02:01:59.236Z,7.43
2019-01-03T02:05:25.704Z,8.80
2019-01-03T02:08:46.474Z,8.77
2019-01-03T02:11:58.872Z,8.83
2019-01-03T02:15:21.989Z,8.70
2019-01-03T02:18:37.360Z,9.37
2019-01-03T02:21:52.620Z,8.37
2019-01-03T02:25:00.911Z,8.30
2019-01-03T02:28:20.419Z,9.13
2019-01-03T02:31:28.666Z,7.63
2019-01-03T02:34:40.863Z,8.13
2019-01-03T02:37:57.143Z,7.93
2019-01-03T02:41:05.428Z,8.10
2019-01-03T02:44:17.708Z,7.80
2019-01-03T02:47:27.641Z,7.47
2019-01-03T02:50:45.903Z,7.77
2019-01-03T02:53:54.912Z,7.13
2019-01-03T02:57:08.319Z,6.77
2019-01-03T03:00:20.419Z,7.57
2019-01-03T03:03:23.396Z,7.57
2019-01-03T03:06:32.734Z,7.63
2019-01-03T03:09:47.777Z,7.43
2019-01-03T03:12:59.902Z,7.07
2019-01-03T03:16:09.126Z,7.30
2019-01-03T03:19:36.297Z,6.80
2019-01-03T03:22:48.553Z,6.53
2019-01-03T03:25:57.111Z,6.57
2019-01-03T03:29:05.274Z,6.97
2019-01-03T03:32:30.287Z,6.30
2019-01-03T03:35:42.071Z,6.00
2019-01-03T03:39:06.082Z,6.87
2019-01-03T03:42:24.286Z,6.67
2019-01-03T03:45:31.780Z,6.83
2019-01-03T03:48:41.355Z,6.67
2019-01-03T03:51:53.503Z,7.30
2019-01-03T03:55:08.775Z,7.70
2019-01-03T03:58:20.949Z,8.67
2019-01-03T04:01:33.311Z,7.80
2019-01-03T04:04:40.952Z,7.23
2019-01-03T04:07:53.280Z,8.20
2019-01-03T04:11:02.267Z,9.70
2019-01-03T04:14:05.100Z,9.07
2019-01-03T04:17:23.735Z,10.03
2019-01-03T04:20:35.808Z,9.97
2019-01-03T04:24:00.316Z,11.53
2019-01-03T04:27:08.336Z,11.30
2019-01-03T04:30:26.919Z,11.63
2019-01-03T04:33:35.209Z,9.70
2019-01-03T04:36:37.513Z,10.67
2019-01-03T04:39:45.763Z,13.20
2019-01-03T04:42:49.838Z,8.30
2019-01-03T04:46:05.466Z,7.43
2019-01-03T04:49:26.890Z,7.60
2019-01-03T04:52:29.351Z,7.13
2019-01-03T04:55:37.491Z,6.80
2019-01-03T04:58:52.811Z,5.90
2019-01-03T05:02:12.810Z,6.73
2019-01-03T05:05:24.415Z,6.80
2019-01-03T05:08:33.576Z,6.00
2019-01-03T05:11:48.970Z,6.97
2019-01-03T05:14:56.999Z,6.23
2019-01-03T05:18:18.824Z,6.37
2019-01-03T05:21:36.816Z,7.90
2019-01-03T05:24:52.319Z,6.37
2019-01-03T05:28:19.968Z,6.40
2019-01-03T05:31:32.389Z,5.80
2019-01-03T05:34:44.680Z,5.67
2019-01-03T05:38:03.496Z,7.27
2019-01-03T05:41:11.597Z,7.73
2019-01-03T05:44:23.846Z,8.33
2019-01-03T05:47:35.743Z,11.83
2019-01-03T05:50:43.908Z,7.83
2019-01-03T05:54:02.499Z,7.77
2019-01-03T05:57:24.013Z,6.27
2019-01-03T06:00:32.394Z,6.80
2019-01-03T06:03:57.192Z,7.20
2019-01-03T06:07:11.356Z,5.67
2019-01-03T06:10:19.531Z,6.43
2019-01-03T06:13:27.497Z,7.80
2019-01-03T06:16:31.393Z,5.37
2019-01-03T06:19:42.566Z,5.77
2019-01-03T06:22:45.649Z,4.83
2019-01-03T06:25:54.076Z,5.07
2019-01-03T06:29:02.638Z,5.20
2019-01-03T06:32:12.107Z,5.50
2019-01-03T06:35:33.762Z,6.50
2019-01-03T06:38:52.150Z,7.53
2019-01-03T06:42:00.466Z,5.43
2019-01-03T06:45:10.480Z,5.77
2019-01-03T06:48:20.183Z,7.07
2019-01-03T06:51:28.612Z,6.90
2019-01-03T06:54:44.070Z,6.13
2019-01-03T06:57:59.533Z,6.97
2019-01-03T07:01:08.821Z,8.40
2019-01-03T07:04:16.556Z,9.27
2019-01-03T07:07:29.028Z,8.33
2019-01-03T07:10:44.412Z,8.37
2019-01-03T07:14:02.463Z,9.60
2019-01-03T07:17:10.510Z,8.90
2019-01-03T07:20:20.113Z,10.40
2019-01-03T07:23:29.446Z,10.67
2019-01-03T07:26:37.226Z,10.57
2019-01-03T07:29:46.357Z,11.03
2019-01-03T07:32:55.284Z,10.17
2019-01-03T07:36:17.059Z,8.50
2019-01-03T07:39:30.208Z,9.90
2019-01-03T07:42:59.452Z,6.40
2019-01-03T07:46:20.734Z,8.40
2019-01-03T07:49:34.315Z,7.53
2019-01-03T07:52:42.428Z,8.40
2019-01-03T07:55:51.340Z,7.10
2019-01-03T07:58:59.217Z,6.80
2019-01-03T08:02:08.508Z,7.50
2019-01-03T08:05:17.379Z,7.00
2019-01-03T08:08:25.489Z,6.07
2019-01-03T08:11:33.547Z,6.90
2019-01-03T08:14:42.622Z,7.10
2019-01-03T08:17:52.779Z,5.90
2019-01-03T08:21:14.387Z,5.90
2019-01-03T08:24:42.228Z,6.83
2019-01-03T08:27:50.371Z,6.60
2019-01-03T08:30:58.335Z,6.40
2019-01-03T08:34:07.546Z,6.53
2019-01-03T08:37:32.324Z,6.60
2019-01-03T08:40:54.092Z,6.37
2019-01-03T08:44:03.473Z,6.83
2019-01-03T08:47:15.816Z,6.33
2019-01-03T08:50:28.384Z,5.67
2019-01-03T08:53:40.675Z,5.50
2019-01-03T08:56:52.984Z,6.10
2019-01-03T09:00:02.110Z,6.30
2019-01-03T09:03:18.213Z,6.17
2019-01-03T09:06:27.479Z,6.30
2019-01-03T09:09:51.707Z,6.20
2019-01-03T09:13:01.230Z,5.90
2019-01-03T09:16:23.471Z,5.57
2019-01-03T09:19:48.048Z,7.27
2019-01-03T09:22:56.227Z,7.23
2019-01-03T09:26:08.284Z,7.00
2019-01-03T09:29:11.453Z,7.37
2019-01-03T09:32:20.883Z,9.50
2019-01-03T09:35:29.241Z,8.23
2019-01-03T09:38:56.947Z,7.37
2019-01-03T09:42:15.396Z,7.77
2019-01-03T09:45:06.063Z,8.40
2019-01-03T09:47:57.151Z,11.07
2019-01-03T09:50:47.484Z,8.77
2019-01-03T09:53:38.067Z,7.70
2019-01-03T09:56:28.430Z,9.10
2019-01-03T09:59:19.310Z,9.40
2019-01-03T10:02:09.718Z,7.97
2019-01-03T10:05:00.423Z,8.57
2019-01-03T10:07:50.860Z,8.00
2019-01-03T10:10:41.319Z,7.13
2019-01-03T10:13:31.518Z,7.37
2019-01-03T10:16:21.825Z,6.87
2019-01-03T10:19:12.384Z,8.67
2019-01-03T10:22:02.660Z,7.50
2019-01-03T10:24:55.442Z,8.67
2019-01-03T10:27:46.025Z,8.67
2019-01-03T10:30:36.668Z,8.57
2019-01-03T10:33:27.379Z,7.97
2019-01-03T10:36:24.120Z,8.50
2019-01-03T10:39:10.325Z,8.17
2019-01-03T10:42:01.181Z,8.33
2019-01-03T10:44:53.562Z,7.80
2019-01-03T10:47:44.361Z,7.67
2019-01-03T10:50:35.078Z,7.47
2019-01-03T10:53:25.471Z,6.50
2019-01-03T10:56:16.299Z,6.83
2019-01-03T10:59:06.837Z,6.83
2019-01-03T11:01:57.600Z,7.87
2019-01-03T11:04:48.273Z,6.57
2019-01-03T11:07:38.922Z,6.93
2019-01-03T11:10:29.664Z,6.20
2019-01-03T11:13:20.371Z,7.57
2019-01-03T11:16:10.978Z,6.23
2019-01-03T11:19:01.410Z,5.47
2019-01-03T11:21:51.907Z,5.80
2019-01-03T11:24:42.637Z,5.87
2019-01-03T11:27:33.463Z,6.47
2019-01-03T11:30:24.099Z,6.37
2019-01-03T11:33:14.745Z,7.63
2019-01-03T11:36:05.586Z,6.10
2019-01-03T11:38:55.755Z,5.90
2019-01-03T11:41:46.279Z,5.30
2019-01-03T11:44:36.648Z,5.67
2019-01-03T11:47:27.267Z,5.43
2019-01-03T11:50:17.942Z,5.63
2019-01-03T11:53:10.990Z,5.10
2019-01-03T11:56:01.165Z,6.20
2019-01-03T11:58:51.874Z,5.40
2019-01-03T12:01:42.464Z,6.47
2019-01-03T12:04:33.236Z,5.67
2019-01-03T12:07:23.559Z,6.07
2019-01-03T12:10:14.190Z,5.10
2019-01-03T12:13:04.410Z,5.10
2019-01-03T12:15:55.150Z,4.80
2019-01-03T12:18:45.774Z,5.13
2019-01-03T12:21:36.475Z,4.30
2019-01-03T12:24:30.622Z,4.30
2019-01-03T12:27:18.663Z,4.57
2019-01-03T12:30:10.631Z,4.60
2019-01-03T12:33:01.311Z,4.20
2019-01-03T12:35:51.759Z,4.07
2019-01-03T12:38:42.333Z,3.60
2019-01-03T12:41:33.150Z,3.87
2019-01-03T12:44:23.813Z,4.10
2019-01-03T12:47:14.488Z,4.27
2019-01-03T12:50:05.822Z,3.90
2019-01-03T12:52:56.174Z,3.70
2019-01-03T12:55:46.636Z,3.97
2019-01-03T12:58:37.264Z,3.80
2019-01-03T13:01:27.897Z,3.57
2019-01-03T13:04:18.349Z,3.80
2019-01-03T13:07:08.680Z,3.63
2019-01-03T13:09:59.289Z,3.50
2019-01-03T13:12:49.906Z,3.47
2019-01-03T13:15:40.514Z,4.67
2019-01-03T13:18:31.207Z,4.10
2019-01-03T13:21:21.882Z,4.40
2019-01-03T13:24:12.498Z,3.77
2019-01-03T13:27:02.744Z,4.20
2019-01-03T13:29:54.888Z,4.27
2019-01-03T13:32:45.504Z,4.00
2019-01-03T13:35:35.817Z,3.83
2019-01-03T13:38:26.269Z,4.30
2019-01-03T13:41:17.184Z,3.87
2019-01-03T13:44:07.597Z,4.50
2019-01-03T13:46:58.144Z,4.10
2019-01-03T13:49:50.397Z,4.10
2019-01-03T13:52:40.949Z,4.50
2019-01-03T13:55:31.472Z,3.97
2019-01-03T13:58:22.066Z,4.20
2019-01-03T14:01:12.647Z,4.20
2019-01-03T14:04:03.454Z,3.80
2019-01-03T14:06:53.978Z,3.87
2019-01-03T14:09:44.677Z,4.20
2019-01-03T14:12:35.167Z,4.30
2019-01-03T14:15:25.376Z,4.63
2019-01-03T14:18:17.218Z,4.70
2019-01-03T14:21:07.562Z,3.90
2019-01-03T14:23:58.026Z,4.47
2019-01-03T14:26:48.455Z,3.97
2019-01-03T14:29:38.620Z,4.43
2019-01-03T14:32:29.207Z,4.97
2019-01-03T14:35:19.780Z,4.40
2019-01-03T14:38:10.407Z,4.60
2019-01-03T14:41:00.878Z,4.67
2019-01-03T14:43:51.474Z,5.10
2019-01-03T14:46:42.152Z,4.60
2019-01-03T14:49:32.716Z,5.30
2019-01-03T14:52:23.340Z,4.73
2019-01-03T14:55:13.692Z,5.87
2019-01-03T14:58:03.981Z,4.43
2019-01-03T15:00:54.682Z,4.63
2019-01-03T15:03:45.394Z,5.17
2019-01-03T15:06:36.038Z,4.87
2019-01-03T15:09:26.634Z,5.80
2019-01-03T15:12:17.193Z,6.03
2019-01-03T15:15:08.152Z,7.20
2019-01-03T15:17:58.660Z,7.07
2019-01-03T15:20:49.174Z,6.83
2019-01-03T15:23:39.948Z,6.80
2019-01-03T15:26:30.789Z,6.67
2019-01-03T15:29:21.155Z,6.70
2019-01-03T15:32:11.616Z,6.33
2019-01-03T15:35:02.240Z,6.23
2019-01-03T15:37:52.625Z,6.57
2019-01-03T15:40:43.256Z,5.90
2019-01-03T15:43:34.212Z,6.03
2019-01-03T15:46:24.744Z,6.57
2019-01-03T15:49:15.584Z,6.40
2019-01-03T15:52:06.036Z,5.50
2019-01-03T15:54:57.052Z,6.70
2019-01-03T15:57:47.512Z,5.77
2019-01-03T16:00:37.929Z,5.67
2019-01-03T16:03:28.538Z,4.90
2019-01-03T16:06:19.035Z,5.57
2019-01-03T16:09:09.820Z,5.03
2019-01-03T16:12:00.187Z,5.67
2019-01-03T16:14:52.403Z,4.60
2019-01-03T16:17:42.715Z,5.03
2019-01-03T16:20:33.434Z,5.90
2019-01-03T16:23:24.378Z,7.10
2019-01-03T16:26:15.066Z,5.93
2019-01-03T16:29:05.758Z,7.07
2019-01-03T16:31:56.389Z,4.83
2019-01-03T16:34:47.064Z,6.97
2019-01-03T16:37:37.596Z,7.97
2019-01-03T16:40:28.291Z,7.20
2019-01-03T16:43:18.762Z,7.33
2019-01-03T16:46:10.165Z,6.80
2019-01-03T16:49:00.629Z,8.10
2019-01-03T16:51:51.005Z,6.43
2019-01-03T16:54:41.499Z,6.30
2019-01-03T16:57:31.929Z,7.13
2019-01-03T17:00:23.052Z,7.17
2019-01-03T17:03:13.859Z,8.23
2019-01-03T17:06:04.673Z,7.90
2019-01-03T17:08:55.167Z,9.03
2019-01-03T17:11:45.749Z,7.53
2019-01-03T17:14:36.080Z,7.67
2019-01-03T17:17:26.642Z,7.57
2019-01-03T17:20:17.124Z,8.03
2019-01-03T17:23:07.553Z,8.27
2019-01-03T17:25:58.075Z,8.00
2019-01-03T17:28:49.910Z,7.53
2019-01-03T17:31:40.450Z,7.50
2019-01-03T17:34:32.116Z,7.90
2019-01-03T17:37:22.698Z,7.20
2019-01-03T17:40:14.626Z,8.40
2019-01-03T17:43:05.449Z,6.80
2019-01-03T17:45:56.155Z,8.17
2019-01-03T17:48:46.958Z,8.07
2019-01-03T17:51:37.582Z,8.33
2019-01-03T17:54:28.132Z,7.17
2019-01-03T17:57:19.623Z,7.27
2019-01-03T18:00:13.713Z,8.03
2019-01-03T18:03:04.972Z,6.73
2019-01-03T18:05:55.539Z,7.57
2019-01-03T18:08:46.138Z,7.30
2019-01-03T18:11:36.968Z,6.27
2019-01-03T18:14:27.656Z,7.70
2019-01-03T18:17:18.160Z,6.20
2019-01-03T18:20:14.694Z,6.20
2019-01-03T18:23:05.119Z,5.90
2019-01-03T18:25:55.985Z,6.60
2019-01-03T18:28:46.454Z,5.97
2019-01-03T18:31:37.285Z,6.90
2019-01-03T18:34:27.732Z,6.33
2019-01-03T18:37:18.005Z,6.80
2019-01-03T18:40:11.033Z,7.97
2019-01-03T18:43:01.520Z,7.40
2019-01-03T18:45:52.000Z,7.17
2019-01-03T18:48:42.852Z,7.53
2019-01-03T18:51:33.645Z,7.63
2019-01-03T18:54:24.480Z,7.80
2019-01-03T18:57:14.651Z,7.37
2019-01-03T19:00:05.675Z,7.57
2019-01-03T19:02:55.966Z,7.63
2019-01-03T19:05:46.283Z,6.77
2019-01-03T19:08:38.563Z,7.00
2019-01-03T19:11:28.819Z,7.07
2019-01-03T19:14:19.422Z,7.40
2019-01-03T19:17:10.309Z,6.40
2019-01-03T19:20:00.900Z,7.03
2019-01-03T19:22:51.405Z,6.70
2019-01-03T19:25:41.877Z,6.77
2019-01-03T19:28:32.711Z,6.67
2019-01-03T19:31:23.696Z,6.23
2019-01-03T19:34:14.604Z,6.07
2019-01-03T19:37:05.018Z,6.70
2019-01-03T19:39:59.346Z,6.00
2019-01-03T19:42:50.006Z,6.47
2019-01-03T19:45:40.477Z,6.00
2019-01-03T19:48:30.775Z,6.13
2019-01-03T19:51:22.080Z,6.47
2019-01-03T19:54:12.747Z,5.93
2019-01-03T19:57:03.333Z,6.63
2019-01-03T19:59:53.938Z,6.20
2019-01-03T20:02:44.463Z,6.27
2019-01-03T20:05:35.037Z,7.10
2019-01-03T20:08:25.888Z,6.57
2019-01-03T20:11:16.502Z,6.33
2019-01-03T20:14:07.409Z,5.83
2019-01-03T20:16:58.190Z,6.07
2019-01-03T20:19:50.553Z,6.07
2019-01-03T20:22:41.409Z,6.20
2019-01-03T20:25:32.098Z,6.20
2019-01-03T20:28:22.823Z,6.10
2019-01-03T20:31:13.467Z,6.07
2019-01-03T20:34:03.885Z,6.57
2019-01-03T20:36:54.593Z,5.87
2019-01-03T20:39:45.426Z,6.37
2019-01-03T20:42:36.116Z,5.90
2019-01-03T20:45:26.801Z,6.03
2019-01-03T20:48:17.375Z,6.00
2019-01-03T20:51:07.949Z,6.00
2019-01-03T20:53:58.697Z,6.37
2019-01-03T20:56:50.410Z,6.00
2019-01-03T20:59:41.474Z,6.50
2019-01-03T21:02:32.124Z,6.37
2019-01-03T21:05:26.503Z,6.30
2019-01-03T21:08:17.177Z,6.30
2019-01-03T21:11:08.914Z,6.60
2019-01-03T21:13:59.797Z,6.37
2019-01-03T21:16:50.390Z,7.03
2019-01-03T21:19:40.704Z,5.93
2019-01-03T21:22:31.592Z,5.90
2019-01-03T21:25:21.988Z,6.33
2019-01-03T21:28:12.367Z,6.40
2019-01-03T21:31:02.907Z,6.60
2019-01-03T21:33:53.583Z,5.90
2019-01-03T21:36:44.186Z,5.73
2019-01-03T21:39:34.698Z,6.23
2019-01-03T21:42:25.366Z,5.97
2019-01-03T21:45:16.858Z,5.90
2019-01-03T21:48:07.771Z,6.43
2019-01-03T21:50:58.255Z,5.57
2019-01-03T21:53:50.294Z,5.50
2019-01-03T21:56:41.150Z,5.80
2019-01-03T21:59:31.739Z,5.50
2019-01-03T22:02:22.053Z,6.03
2019-01-03T22:05:12.875Z,5.83
2019-01-03T22:08:05.055Z,5.80
2019-01-03T22:10:55.677Z,5.50
2019-01-03T22:13:46.625Z,5.90
2019-01-03T22:16:37.112Z,6.10
2019-01-03T22:19:27.365Z,5.90
2019-01-03T22:22:18.089Z,6.17
2019-01-03T22:25:08.719Z,6.47
2019-01-03T22:27:59.087Z,5.97
2019-01-03T22:30:49.812Z,5.73
2019-01-03T22:33:40.693Z,5.67
2019-01-03T22:36:31.238Z,5.20
2019-01-03T22:39:21.848Z,5.13
2019-01-03T22:42:12.543Z,5.57
2019-01-03T22:45:03.289Z,6.07
2019-01-03T22:47:55.011Z,5.70
2019-01-03T22:50:45.280Z,5.73
2019-01-03T22:53:35.764Z,5.80
2019-01-03T22:56:26.307Z,6.00
2019-01-03T22:59:18.120Z,5.57
2019-01-03T23:02:08.509Z,6.03
2019-01-03T23:04:58.882Z,5.90
2019-01-03T23:07:49.345Z,6.13
2019-01-03T23:10:40.271Z,6.10
2019-01-03T23:13:31.035Z,5.90
2019-01-03T23:16:21.944Z,5.10
2019-01-03T23:19:12.269Z,5.57
2019-01-03T23:22:02.982Z,5.77
2019-01-03T23:24:53.796Z,5.63
2019-01-03T23:27:44.324Z,5.70
2019-01-03T23:30:34.953Z,5.93
2019-01-03T23:33:25.555Z,5.80
2019-01-03T23:36:15.813Z,5.80
2019-01-03T23:39:06.626Z,5.43
2019-01-03T23:41:57.110Z,5.63
2019-01-03T23:45:12.687Z,5.77
2019-01-03T23:48:03.473Z,5.47
2019-01-03T23:50:54.073Z,5.70
2019-01-03T23:53:45.764Z,5.70
2019-01-03T23:56:36.525Z,5.47
2019-01-03T23:59:27.195Z,5.40
